Time;durP1;ratioP1;P1;durP2;ratioP2;P2;SDS_P1;SDS_P2;PMS_P1;PMS_P2;Temp;Humidity;BMP_temperature;BMP_pressure;BME280_temperature;BME280_humidity;BME280_pressure;Samples;Min_cycle;Max_cycle;Signal;HPM_P1;HPM_P2
2021/12/08 00:01:20;;;;;;;;;4.75;2.00;;;;;7.88;66.12;98984.28;4977333;28;45461;-68
2021/12/08 00:03:46;;;;;;;;;0.00;0.00;;;;;7.78;66.23;98971.78;4993613;28;45357;-69
2021/12/08 00:06:11;;;;;;;;;1.25;0.25;;;;;7.82;66.37;98984.72;4994172;28;47280;-68
2021/12/08 00:08:38;;;;;;;;;0.50;0.50;;;;;7.82;66.32;98983.88;4994067;28;45339;-67
2021/12/08 00:13:48;;;;;;;;;0.00;0.00;;;;;7.79;66.59;98989.34;4988969;28;45886;-64
2021/12/08 00:16:14;;;;;;;;;0.00;0.00;;;;;7.83;66.85;98996.16;4983233;28;45278;-66
2021/12/08 00:18:46;;;;;;;;;0.00;0.00;;;;;7.81;66.39;98990.09;4991730;27;45481;-66
2021/12/08 00:21:12;;;;;;;;;0.00;0.00;;;;;7.79;66.56;98989.34;4964079;28;45426;-64
2021/12/08 00:23:38;;;;;;;;;0.00;0.00;;;;;7.77;66.94;98989.47;4983670;28;45877;-70
2021/12/08 00:26:04;;;;;;;;;0.00;0.00;;;;;7.68;66.85;98975.09;4976574;28;45241;-67
2021/12/08 00:28:30;;;;;;;;;1.00;0.00;;;;;7.71;66.29;98974.03;4973339;28;45259;-65
2021/12/08 00:31:00;;;;;;;;;0.50;0.50;;;;;7.66;66.92;98976.97;4991566;28;45503;-67
2021/12/08 00:33:27;;;;;;;;;0.50;0.25;;;;;7.71;67.12;98981.97;4993912;28;45392;-64
2021/12/08 00:35:54;;;;;;;;;3.00;1.00;;;;;7.67;67.27;98970.72;4993814;28;45432;-66
2021/12/08 00:38:20;;;;;;;;;2.00;0.00;;;;;7.74;67.41;98989.69;4965389;28;45824;-64
2021/12/08 00:40:49;;;;;;;;;0.00;0.00;;;;;7.69;67.21;98986.53;4990136;28;45327;-65
2021/12/08 00:43:15;;;;;;;;;1.00;0.00;;;;;7.68;66.88;98993.63;4992572;28;45488;-65
2021/12/08 00:45:41;;;;;;;;;0.00;0.00;;;;;7.70;66.84;98996.16;4993886;28;45773;-64
2021/12/08 00:48:07;;;;;;;;;4.00;0.00;;;;;7.71;66.64;99005.78;4992953;28;45702;-68
2021/12/08 00:50:35;;;;;;;;;4.50;0.00;;;;;7.64;65.99;99013.28;4993453;28;45604;-67
2021/12/08 00:53:01;;;;;;;;;0.00;0.00;;;;;7.51;66.95;99004.50;4993525;28;46597;-65
2021/12/08 00:55:27;;;;;;;;;2.00;0.00;;;;;7.56;66.98;99015.63;4994135;28;45361;-68
2021/12/08 00:57:54;;;;;;;;;1.00;0.00;;;;;7.58;66.72;99024.31;4972850;28;45454;-65
2021/12/08 01:00:35;;;;;;;;;0.75;0.00;;;;;7.54;66.21;99036.03;4985098;28;45560;-68
2021/12/08 01:03:01;;;;;;;;;0.00;0.00;;;;;7.56;66.74;99023.56;4975185;28;46770;-68
2021/12/08 01:05:31;;;;;;;;;0.00;0.00;;;;;7.59;66.30;99036.56;4993732;28;45387;-65
2021/12/08 01:07:57;;;;;;;;;1.50;0.00;;;;;7.54;66.92;99016.66;4991775;28;45480;-70
2021/12/08 01:10:25;;;;;;;;;0.00;0.00;;;;;7.54;66.03;99027.25;4993892;28;45326;-69
2021/12/08 01:12:51;;;;;;;;;1.00;0.00;;;;;7.45;66.05;99010.22;4974521;28;47663;-70
2021/12/08 01:15:18;;;;;;;;;4.00;0.00;;;;;7.45;66.27;99007.59;4993326;28;45329;-65
2021/12/08 01:17:44;;;;;;;;;0.75;0.00;;;;;7.48;66.05;99017.94;4993525;28;45357;-64
2021/12/08 01:20:13;;;;;;;;;2.25;0.25;;;;;7.42;66.34;99013.06;4976897;28;45473;-64
2021/12/08 01:22:39;;;;;;;;;1.25;0.00;;;;;7.34;65.93;99023.34;4993349;28;46247;-64
2021/12/08 01:25:05;;;;;;;;;1.00;0.00;;;;;7.30;65.73;99021.84;4991901;28;45608;-71
2021/12/08 01:27:32;;;;;;;;;0.75;0.00;;;;;7.25;66.05;99005.44;4993356;28;45236;-68
2021/12/08 01:29:58;;;;;;;;;0.00;0.00;;;;;7.22;66.41;98995.06;4993512;28;45460;-66
2021/12/08 01:32:23;;;;;;;;;0.00;0.00;;;;;7.18;66.34;98981.22;4993047;28;45522;-68
2021/12/08 01:34:51;;;;;;;;;0.75;0.00;;;;;7.18;66.56;98980.38;4992286;28;45390;-69
2021/12/08 01:37:17;;;;;;;;;1.25;0.00;;;;;7.17;66.68;98981.31;4992145;28;45279;-67
2021/12/08 01:39:42;;;;;;;;;2.00;0.00;;;;;7.18;66.17;98988.31;4993540;28;45307;-63
2021/12/08 01:42:15;;;;;;;;;0.00;0.00;;;;;7.13;66.25;98985.94;4992940;28;45304;-66
2021/12/08 01:47:27;;;;;;;;;0.00;0.00;;;;;7.12;66.51;99009.84;4992771;28;45526;-66
2021/12/08 01:49:52;;;;;;;;;0.00;0.00;;;;;7.10;66.85;99024.03;4975823;28;45313;-64
2021/12/08 01:52:18;;;;;;;;;0.00;0.00;;;;;7.07;66.43;99037.44;4992901;28;45373;-66
2021/12/08 01:54:43;;;;;;;;;0.75;0.75;;;;;6.99;66.44;99030.97;4993299;28;45498;-67
2021/12/08 01:57:09;;;;;;;;;0.00;0.00;;;;;6.99;66.33;99042.38;4993276;28;45441;-65
2021/12/08 01:59:34;;;;;;;;;0.00;0.00;;;;;6.97;66.76;99046.09;4993208;28;46175;-68
2021/12/08 02:02:00;;;;;;;;;1.00;0.00;;;;;6.97;66.38;99046.94;4970473;28;46288;-69
2021/12/08 02:04:25;;;;;;;;;0.50;0.00;;;;;6.95;67.42;99043.53;4972895;28;45416;-70
2021/12/08 02:06:51;;;;;;;;;1.75;0.00;;;;;6.98;66.67;99051.25;4993031;28;45264;-64
2021/12/08 02:09:17;;;;;;;;;0.25;0.00;;;;;6.94;66.70;99049.78;4958966;28;45292;-68
2021/12/08 02:11:46;;;;;;;;;2.00;0.00;;;;;6.87;67.17;99043.19;4958888;28;46399;-69
2021/12/08 02:14:14;;;;;;;;;0.00;0.00;;;;;6.86;67.40;99056.50;4983805;28;45792;-66
2021/12/08 02:16:39;;;;;;;;;3.25;0.00;;;;;6.87;67.52;99064.31;4992464;28;45231;-68
2021/12/08 02:19:06;;;;;;;;;2.00;1.00;;;;;6.86;68.29;99073.22;4987536;28;45559;-67
2021/12/08 02:21:35;;;;;;;;;0.00;0.00;;;;;6.89;67.44;99096.78;4991902;28;45649;-68
2021/12/08 02:24:06;;;;;;;;;0.25;0.25;;;;;6.82;67.89;99092.00;4991335;28;45469;-68
2021/12/08 02:26:33;;;;;;;;;2.50;0.00;;;;;6.82;68.11;99094.66;4992243;28;45471;-68
2021/12/08 02:29:05;;;;;;;;;0.00;0.00;;;;;6.80;67.61;99089.47;4991874;28;45409;-71
2021/12/08 02:31:39;;;;;;;;;2.00;0.00;;;;;6.74;68.34;99074.00;4992424;28;45487;-68
2021/12/08 02:47:54;;;;;;;;;0.75;0.00;;;;;6.58;68.61;99079.41;4994860;28;45452;-65
2021/12/08 02:50:40;;;;;;;;;0.00;0.00;;;;;6.55;68.91;99079.63;4985757;28;45408;-65
2021/12/08 02:53:08;;;;;;;;;0.00;0.00;;;;;6.57;68.88;99085.66;4978054;28;46640;-68
2021/12/08 02:55:34;;;;;;;;;0.00;0.00;;;;;6.58;69.18;99089.13;4995247;28;45365;-66
2021/12/08 02:58:01;;;;;;;;;0.00;0.00;;;;;6.61;68.39;99094.22;4994907;28;45795;-67
2021/12/08 03:00:29;;;;;;;;;0.00;0.00;;;;;6.53;68.31;99100.00;4977376;28;45500;-66
2021/12/08 03:02:57;;;;;;;;;1.00;0.00;;;;;6.44;69.06;99088.22;5036361;28;46337;-65
2021/12/08 03:05:24;;;;;;;;;0.50;0.00;;;;;6.49;68.41;99085.28;4995126;28;45511;-66
2021/12/08 03:07:50;;;;;;;;;1.00;0.00;;;;;6.45;68.80;99074.06;4995526;28;45418;-65
2021/12/08 03:10:20;;;;;;;;;0.00;0.00;;;;;6.43;68.50;99069.84;4974941;28;45565;-67
2021/12/08 03:12:46;;;;;;;;;0.00;0.00;;;;;6.35;68.49;99059.75;4980478;28;45331;-69
2021/12/08 03:15:13;;;;;;;;;0.00;0.00;;;;;6.43;68.31;99065.41;4994300;28;45496;-70
2021/12/08 03:17:39;;;;;;;;;1.00;1.00;;;;;6.43;68.47;99072.47;4995390;28;45666;-67
2021/12/08 03:20:08;;;;;;;;;0.00;0.00;;;;;6.40;68.70;99060.31;4995093;28;45236;-66
2021/12/08 03:22:38;;;;;;;;;0.00;0.00;;;;;6.31;68.40;99052.97;4994765;28;45378;-67
2021/12/08 03:25:06;;;;;;;;;0.50;0.00;;;;;6.40;68.96;99065.59;4995500;28;45432;-65
2021/12/08 03:27:43;;;;;;;;;2.00;0.00;;;;;6.38;67.57;99063.97;4976355;28;45399;-68
2021/12/08 03:30:22;;;;;;;;;0.00;0.00;;;;;6.35;67.59;99051.81;4974525;28;45496;-66
2021/12/08 03:32:47;;;;;;;;;0.00;0.00;;;;;6.33;68.34;99048.44;4977488;28;48137;-68
2021/12/08 03:35:15;;;;;;;;;0.00;0.00;;;;;6.37;68.26;99042.00;4994370;28;45487;-66
2021/12/08 03:37:46;;;;;;;;;0.00;0.00;;;;;6.42;67.89;99047.88;4995436;28;45495;-66
2021/12/08 03:40:23;;;;;;;;;0.00;0.00;;;;;6.39;68.29;99023.47;4995205;28;45393;-67
2021/12/08 03:42:52;;;;;;;;;0.00;0.00;;;;;6.47;68.44;99042.28;4994656;28;47078;-65
2021/12/08 03:45:25;;;;;;;;;1.00;0.00;;;;;6.47;68.17;99051.06;4976887;28;45436;-65
2021/12/08 03:48:00;;;;;;;;;0.00;0.00;;;;;6.42;67.45;99058.44;4993534;28;45461;-64
2021/12/08 03:50:25;;;;;;;;;2.00;0.00;;;;;6.44;68.09;99045.97;4978330;28;45258;-70
2021/12/08 03:52:51;;;;;;;;;0.25;0.00;;;;;6.42;67.96;99041.72;4994696;28;46089;-67
2021/12/08 03:55:17;;;;;;;;;0.00;0.00;;;;;6.42;67.54;99052.28;4994484;28;45524;-66
2021/12/08 03:57:42;;;;;;;;;1.00;1.00;;;;;6.41;68.29;99056.72;4995186;28;45444;-68
2021/12/08 04:00:15;;;;;;;;;0.00;0.00;;;;;6.41;68.74;99056.72;4994249;28;45612;-68
2021/12/08 04:02:41;;;;;;;;;0.50;0.00;;;;;6.41;68.28;99056.72;4978823;28;45468;-68
2021/12/08 04:05:07;;;;;;;;;0.00;0.00;;;;;6.40;68.14;99052.41;4994348;28;45540;-64
2021/12/08 04:07:32;;;;;;;;;0.00;0.00;;;;;6.39;68.32;99053.34;4994163;28;45285;-66
2021/12/08 04:09:58;;;;;;;;;0.00;0.00;;;;;6.32;68.80;99038.81;4994704;28;45393;-71
2021/12/08 04:12:24;;;;;;;;;0.00;0.00;;;;;6.38;67.81;99046.38;4994097;28;47020;-68
2021/12/08 04:14:55;;;;;;;;;0.00;0.00;;;;;6.35;67.96;99051.81;4973544;28;45374;-67
2021/12/08 04:17:31;;;;;;;;;2.00;2.00;;;;;6.34;68.61;99050.13;4981699;28;45424;-66
2021/12/08 04:19:59;;;;;;;;;4.25;0.00;;;;;6.28;68.62;99037.34;4993140;27;45401;-68
2021/12/08 04:22:29;;;;;;;;;0.00;0.00;;;;;6.33;69.10;99043.16;4978172;28;46190;-69
2021/12/08 04:24:57;;;;;;;;;0.00;0.00;;;;;6.37;69.11;99057.84;4994504;28;45317;-65
2021/12/08 04:27:31;;;;;;;;;1.00;1.00;;;;;6.29;69.12;99049.59;4994284;28;45255;-66
2021/12/08 04:29:57;;;;;;;;;0.00;0.00;;;;;6.34;68.00;99044.84;4994903;28;45345;-67
2021/12/08 04:32:25;;;;;;;;;0.00;0.00;;;;;6.36;68.38;99058.78;4994357;28;45258;-65
2021/12/08 04:34:54;;;;;;;;;1.00;1.00;;;;;6.35;69.03;99069.47;4993531;28;45457;-66
2021/12/08 04:37:32;;;;;;;;;0.00;0.00;;;;;6.35;69.07;99065.03;4994177;28;45270;-66
2021/12/08 04:45:46;;;;;;;;;1.00;0.00;;;;;6.30;68.93;99058.34;4993834;28;45386;-69
2021/12/08 04:48:47;;;;;;;;;1.75;0.00;;;;;6.32;68.62;99067.03;4975545;28;45488;-68
2021/12/08 04:51:44;;;;;;;;;1.00;0.00;;;;;6.36;68.58;99064.06;4991734;28;46222;-65
2021/12/08 05:05:38;;;;;;;;;1.00;1.00;;;;;6.33;68.63;99074.84;5009942;28;45541;-67
2021/12/08 05:08:15;;;;;;;;;1.50;0.00;;;;;6.35;68.73;99094.06;4993144;28;45475;-67
2021/12/08 05:10:41;;;;;;;;;2.00;0.25;;;;;6.37;68.84;99097.47;4993361;28;45541;-68
2021/12/08 05:13:10;;;;;;;;;2.50;1.00;;;;;6.38;69.35;99090.38;4993044;28;45316;-72
2021/12/08 05:15:43;;;;;;;;;2.00;1.00;;;;;6.33;68.52;99082.75;4993860;28;45266;-68
2021/12/08 05:18:14;;;;;;;;;0.00;0.00;;;;;6.37;69.19;99089.53;4993388;28;45187;-70
2021/12/08 05:21:01;;;;;;;;;1.00;0.50;;;;;6.31;68.63;99092.56;4993511;28;45402;-68
2021/12/08 05:23:30;;;;;;;;;0.25;0.00;;;;;6.25;69.28;99086.81;4973078;28;45519;-68
2021/12/08 05:25:58;;;;;;;;;1.00;1.00;;;;;6.23;68.67;99089.56;4973572;28;46152;-69
2021/12/08 05:28:26;;;;;;;;;1.00;0.00;;;;;6.27;68.65;99100.78;4991221;28;45344;-68
2021/12/08 05:31:00;;;;;;;;;1.75;0.00;;;;;6.30;69.61;99100.59;4993315;28;45457;-67
2021/12/08 05:33:27;;;;;;;;;2.00;0.00;;;;;6.24;69.11;99095.69;4993041;28;45231;-63
2021/12/08 05:35:54;;;;;;;;;3.50;1.00;;;;;6.31;69.21;99111.06;4977942;28;45272;-70
2021/12/08 05:38:20;;;;;;;;;1.50;0.00;;;;;6.28;68.23;99108.63;4983498;28;46964;-70
2021/12/08 05:41:16;;;;;;;;;0.00;0.00;;;;;6.23;68.57;99105.38;4993456;28;45314;-67
2021/12/08 05:43:43;;;;;;;;;0.00;0.00;;;;;6.22;68.67;99114.25;4994330;28;45536;-68
2021/12/08 05:46:11;;;;;;;;;0.00;0.00;;;;;6.19;69.27;99103.91;4993392;28;46099;-67
2021/12/08 05:48:38;;;;;;;;;2.00;0.50;;;;;6.21;68.81;99109.91;4990582;28;45300;-70
2021/12/08 05:51:10;;;;;;;;;4.00;0.00;;;;;6.15;69.41;99100.59;4982938;28;45501;-70
2021/12/08 05:53:41;;;;;;;;;1.25;0.50;;;;;6.14;69.57;99103.34;4974436;28;45859;-68
2021/12/08 05:56:08;;;;;;;;;2.00;0.00;;;;;6.15;69.74;99111.16;4973190;28;45338;-71
2021/12/08 05:58:36;;;;;;;;;1.00;0.25;;;;;6.13;69.19;99115.69;5040776;28;45607;-69
2021/12/08 06:01:12;;;;;;;;;2.00;1.00;;;;;6.07;69.39;99094.09;4979964;28;45332;-69
2021/12/08 06:03:38;;;;;;;;;3.00;1.00;;;;;6.04;69.27;99089.00;4993335;28;45511;-65
2021/12/08 06:06:05;;;;;;;;;3.00;0.00;;;;;6.01;69.30;99078.66;4990022;28;45996;-68
2021/12/08 06:08:30;;;;;;;;;0.00;0.00;;;;;6.10;69.30;99085.97;4992067;28;45423;-68
2021/12/08 06:11:00;;;;;;;;;2.00;0.75;;;;;6.07;69.63;99094.09;4994704;28;45407;-67
2021/12/08 06:13:26;;;;;;;;;2.00;0.25;;;;;6.04;69.33;99099.56;4995817;28;45464;-65
2021/12/08 06:15:52;;;;;;;;;0.50;0.50;;;;;5.94;69.64;99093.16;4977086;28;46732;-66
2021/12/08 06:18:22;;;;;;;;;0.75;0.75;;;;;5.97;68.84;99092.94;4993573;28;45404;-67
2021/12/08 06:20:48;;;;;;;;;2.00;1.00;;;;;5.94;69.97;99086.06;4976238;28;45719;-66
2021/12/08 06:23:13;;;;;;;;;0.25;0.25;;;;;5.95;69.82;99090.41;4976927;28;45593;-65
2021/12/08 06:25:40;;;;;;;;;0.50;0.00;;;;;5.91;69.27;99100.31;4994956;28;45452;-65
2021/12/08 06:28:08;;;;;;;;;2.00;0.00;;;;;5.84;69.71;99096.28;4995548;28;45307;-65
2021/12/08 06:30:38;;;;;;;;;1.00;1.00;;;;;5.80;69.89;99096.59;4978456;28;45382;-68
2021/12/08 06:33:04;;;;;;;;;2.50;0.75;;;;;5.81;69.58;99104.41;4996221;28;45497;-68
2021/12/08 06:35:42;;;;;;;;;0.00;0.00;;;;;5.78;69.63;99104.59;4978629;28;45998;-67
2021/12/08 06:38:09;;;;;;;;;0.75;0.00;;;;;5.79;69.07;99116.00;4990995;28;45434;-66
2021/12/08 06:40:50;;;;;;;;;1.00;1.00;;;;;5.77;69.34;99113.44;4995750;28;45476;-67
2021/12/08 06:43:20;;;;;;;;;0.25;0.00;;;;;5.81;70.02;99130.78;4996655;28;45315;-67
2021/12/08 06:45:49;;;;;;;;;1.00;0.00;;;;;5.80;70.22;99123.81;4974398;28;45740;-68
2021/12/08 06:48:26;;;;;;;;;4.00;2.00;;;;;5.80;70.10;99125.59;4974463;28;45461;-68
2021/12/08 06:51:02;;;;;;;;;2.75;0.25;;;;;5.80;69.50;99126.44;4957566;28;45603;-69
2021/12/08 06:53:29;;;;;;;;;4.00;0.00;;;;;5.79;70.17;99119.47;4959183;28;45186;-66
2021/12/08 06:56:21;;;;;;;;;2.00;1.00;;;;;5.81;69.36;99109.69;4988078;28;45540;-72
2021/12/08 06:58:50;;;;;;;;;1.25;0.00;;;;;5.78;70.17;99109.03;4989321;28;45431;-72
2021/12/08 07:01:44;;;;;;;;;2.00;0.50;;;;;5.73;69.72;99104.03;4993177;28;45368;-68
2021/12/08 07:04:28;;;;;;;;;2.00;0.75;;;;;5.79;70.41;99110.72;4991917;28;45389;-67
2021/12/08 07:07:11;;;;;;;;;1.75;1.00;;;;;5.73;69.90;99098.75;4995912;28;46710;-65
2021/12/08 07:09:47;;;;;;;;;0.50;0.00;;;;;5.79;70.54;99103.66;4995627;28;45297;-71
2021/12/08 07:12:18;;;;;;;;;1.00;0.00;;;;;5.77;70.40;99108.19;4995739;28;45209;-66
2021/12/08 07:14:49;;;;;;;;;1.25;1.00;;;;;5.75;69.79;99110.06;4994826;28;45545;-67
2021/12/08 07:17:21;;;;;;;;;1.00;1.00;;;;;5.68;70.27;99099.97;4977835;28;47809;-69
2021/12/08 07:20:02;;;;;;;;;2.00;1.00;;;;;5.73;70.93;99130.41;4974292;28;45612;-66
2021/12/08 07:22:30;;;;;;;;;1.00;1.00;;;;;5.70;70.97;99129.72;4986096;28;45416;-67
2021/12/08 07:24:59;;;;;;;;;0.00;0.00;;;;;5.65;70.58;99121.25;4994747;28;45385;-65
2021/12/08 07:27:29;;;;;;;;;1.25;1.00;;;;;5.58;70.06;99097.00;4995129;28;45346;-67
2021/12/08 07:29:59;;;;;;;;;8.75;1.00;;;;;5.66;71.24;99120.31;4993655;28;45443;-65
2021/12/08 07:32:29;;;;;;;;;0.00;0.00;;;;;5.55;71.21;99108.59;4977496;28;45470;-68
2021/12/08 07:34:58;;;;;;;;;0.50;0.50;;;;;5.57;71.02;99111.13;4978637;28;45219;-66
2021/12/08 07:37:29;;;;;;;;;0.00;0.00;;;;;5.58;70.47;99115.47;4994825;28;46294;-68
2021/12/08 07:40:04;;;;;;;;;2.50;1.00;;;;;5.53;70.80;99126.31;4976805;28;45275;-67
2021/12/08 07:42:44;;;;;;;;;2.50;0.00;;;;;5.58;71.16;99133.94;4977778;28;45467;-67
2021/12/08 07:45:16;;;;;;;;;1.25;0.50;;;;;5.57;71.23;99138.34;4977386;28;45235;-65
2021/12/08 07:47:43;;;;;;;;;0.00;0.00;;;;;5.59;70.81;99141.75;4994912;28;46290;-66
2021/12/08 07:50:19;;;;;;;;;0.00;0.00;;;;;5.52;71.04;99155.41;4977627;28;45323;-66
2021/12/08 07:52:48;;;;;;;;;1.00;1.00;;;;;5.62;71.55;99172.41;4994894;28;45376;-65
2021/12/08 07:55:24;;;;;;;;;3.00;0.75;;;;;5.64;71.27;99167.88;4977667;28;45586;-68
2021/12/08 07:57:51;;;;;;;;;2.00;0.00;;;;;5.66;70.66;99173.06;4994514;28;45451;-66
2021/12/08 08:00:31;;;;;;;;;0.25;0.25;;;;;5.66;70.59;99166.00;4977220;28;45363;-68
2021/12/08 08:02:58;;;;;;;;;1.00;1.00;;;;;5.69;70.46;99179.00;4993411;28;45486;-67
2021/12/08 08:05:28;;;;;;;;;1.00;1.00;;;;;5.71;70.68;99182.38;4977040;28;45445;-67
2021/12/08 08:07:56;;;;;;;;;1.75;0.50;;;;;5.72;70.63;99178.81;4976952;28;47339;-68
2021/12/08 08:10:23;;;;;;;;;5.00;2.50;;;;;5.67;70.23;99162.41;4994482;28;45317;-66
2021/12/08 08:12:51;;;;;;;;;3.25;1.00;;;;;5.69;70.22;99186.91;4994983;28;45454;-66
2021/12/08 08:15:21;;;;;;;;;1.00;1.00;;;;;5.70;70.83;99166.66;4995116;28;45336;-67
2021/12/08 08:17:51;;;;;;;;;2.00;1.00;;;;;5.71;70.69;99161.28;4976714;28;47716;-68
2021/12/08 08:20:31;;;;;;;;;0.00;0.00;;;;;5.66;70.51;99152.81;4994659;28;45381;-67
2021/12/08 08:22:59;;;;;;;;;4.00;4.00;;;;;5.68;70.41;99150.91;4961369;28;45367;-67
2021/12/08 08:25:34;;;;;;;;;1.00;1.00;;;;;5.79;70.42;99163.47;4957569;28;45462;-68
2021/12/08 08:28:01;;;;;;;;;5.00;2.00;;;;;5.77;71.16;99170.63;4975269;28;45382;-67
2021/12/08 08:30:36;;;;;;;;;1.00;1.00;;;;;5.78;70.13;99175.81;4974758;28;45322;-68
2021/12/08 08:33:02;;;;;;;;;0.50;0.00;;;;;5.78;69.76;99188.16;4957360;28;45300;-68
2021/12/08 08:35:34;;;;;;;;;3.50;1.25;;;;;5.78;71.00;99188.16;4958779;28;45255;-67
2021/12/08 08:38:03;;;;;;;;;4.75;1.25;;;;;5.81;70.61;99198.53;4975429;28;45451;-67
2021/12/08 08:40:36;;;;;;;;;0.00;0.00;;;;;5.76;70.08;99200.59;4974585;28;45295;-67
2021/12/08 08:43:05;;;;;;;;;1.50;1.50;;;;;5.78;70.41;99210.13;4974906;28;45386;-67
2021/12/08 08:45:46;;;;;;;;;2.00;0.00;;;;;5.79;70.64;99201.25;4974997;28;45423;-66
2021/12/08 08:48:18;;;;;;;;;0.25;0.25;;;;;5.86;70.52;99205.25;4974283;28;45488;-66
2021/12/08 08:50:59;;;;;;;;;0.00;0.00;;;;;5.83;70.98;99197.50;4974456;28;45426;-66
2021/12/08 08:53:28;;;;;;;;;5.00;1.00;;;;;5.82;70.94;99190.53;4974555;28;45380;-67
2021/12/08 08:56:00;;;;;;;;;1.00;1.00;;;;;5.88;70.49;99194.59;4974566;28;45371;-67
2021/12/08 08:58:29;;;;;;;;;1.00;1.00;;;;;5.84;69.42;99198.34;4974511;28;46144;-67
2021/12/08 09:01:11;;;;;;;;;1.25;1.00;;;;;5.79;69.65;99181.94;4974362;28;45433;-66
2021/12/08 09:03:38;;;;;;;;;1.00;1.00;;;;;5.82;69.68;99179.97;4957929;28;45430;-66
2021/12/08 09:06:08;;;;;;;;;1.00;1.00;;;;;5.94;69.45;99188.13;4974803;28;45476;-65
2021/12/08 09:08:35;;;;;;;;;1.00;1.00;;;;;5.94;69.31;99190.78;4974764;28;45291;-66
2021/12/08 09:11:29;;;;;;;;;1.00;1.00;;;;;5.94;69.97;99198.69;4974291;28;45480;-67
2021/12/08 09:14:03;;;;;;;;;1.00;1.00;;;;;5.96;69.02;99210.00;4977392;28;45303;-66
2021/12/08 09:17:01;;;;;;;;;4.25;0.50;;;;;5.98;69.03;99218.66;4973995;28;45409;-66
2021/12/08 09:19:36;;;;;;;;;2.25;1.00;;;;;5.98;69.33;99222.16;4973789;28;45361;-65
2021/12/08 09:22:13;;;;;;;;;1.00;1.00;;;;;6.00;69.57;99222.09;4964352;28;45446;-66
2021/12/08 09:24:48;;;;;;;;;4.75;1.00;;;;;5.99;69.04;99226.53;4994161;28;45333;-68
2021/12/08 09:27:22;;;;;;;;;1.75;0.00;;;;;6.07;68.43;99236.59;4994282;28;45380;-67
2021/12/08 09:29:56;;;;;;;;;5.50;1.00;;;;;6.13;69.21;99230.97;4993558;28;45482;-67
2021/12/08 09:32:38;;;;;;;;;1.00;1.00;;;;;6.17;68.80;99229.84;4993576;28;45489;-67
2021/12/08 09:35:22;;;;;;;;;0.00;0.00;;;;;6.23;68.28;99237.38;4961544;28;45296;-67
2021/12/08 09:37:57;;;;;;;;;3.50;1.00;;;;;6.23;68.46;99229.47;4976045;28;45805;-66
2021/12/08 09:40:37;;;;;;;;;1.00;1.00;;;;;6.24;68.08;99243.50;4976122;28;45665;-66
2021/12/08 09:43:34;;;;;;;;;2.00;1.00;;;;;6.21;68.25;99231.34;4975490;28;45424;-68
2021/12/08 09:46:20;;;;;;;;;2.00;1.00;;;;;6.30;68.33;99259.84;4993427;28;45454;-71
2021/12/08 09:48:47;;;;;;;;;1.75;1.00;;;;;6.24;67.83;99233.81;4994137;28;45258;-66
2021/12/08 09:51:16;;;;;;;;;0.00;0.00;;;;;6.40;67.61;99258.38;4993116;28;45618;-68
2021/12/08 09:53:43;;;;;;;;;0.75;0.75;;;;;6.44;68.01;99251.94;4993468;28;45495;-66
2021/12/08 09:56:09;;;;;;;;;0.25;0.25;;;;;6.44;67.79;99246.66;4975697;28;45474;-65
2021/12/08 09:58:39;;;;;;;;;2.75;1.00;;;;;6.50;67.56;99238.34;4976214;28;45323;-67
2021/12/08 10:01:09;;;;;;;;;1.50;0.00;;;;;6.52;66.74;99232.16;4975826;28;47234;-68
2021/12/08 10:03:35;;;;;;;;;1.00;1.00;;;;;6.55;66.46;99243.38;4993676;28;45406;-67
2021/12/08 10:06:02;;;;;;;;;0.00;0.00;;;;;6.60;67.15;99237.81;4993250;28;45247;-66
2021/12/08 10:08:29;;;;;;;;;0.00;0.00;;;;;6.70;66.54;99237.16;4975965;28;45257;-69
2021/12/08 10:10:55;;;;;;;;;2.00;0.50;;;;;6.75;66.83;99234.22;4993205;28;45278;-69
2021/12/08 10:13:21;;;;;;;;;1.00;1.00;;;;;6.84;66.97;99227.53;4993133;28;45456;-69
2021/12/08 10:15:48;;;;;;;;;0.00;0.00;;;;;6.87;65.63;99214.97;4975830;28;45378;-67
2021/12/08 10:18:13;;;;;;;;;4.75;2.00;;;;;6.92;65.66;99212.06;4993031;28;45474;-68
2021/12/08 10:20:43;;;;;;;;;0.50;0.50;;;;;6.97;65.03;99216.09;4975220;28;47246;-66
2021/12/08 10:23:12;;;;;;;;;5.50;1.00;;;;;7.04;65.36;99214.75;4974616;28;45422;-69
2021/12/08 10:25:46;;;;;;;;;1.75;1.00;;;;;7.09;65.14;99215.31;4973724;28;45400;-68
2021/12/08 10:28:18;;;;;;;;;4.75;2.00;;;;;7.12;64.86;99214.25;4973603;28;45433;-66
2021/12/08 10:30:52;;;;;;;;;0.25;0.25;;;;;7.17;65.03;99221.91;4972841;28;47363;-68
2021/12/08 10:33:58;;;;;;;;;2.00;0.00;;;;;7.28;64.46;99216.75;4973039;28;45243;-66
2021/12/08 10:36:56;;;;;;;;;5.75;2.00;;;;;7.38;64.35;99221.38;4955601;28;45391;-66
2021/12/08 10:39:42;;;;;;;;;1.50;1.50;;;;;7.42;64.00;99222.00;4955734;28;45462;-68
2021/12/08 10:42:29;;;;;;;;;1.00;0.25;;;;;7.47;63.76;99200.56;4955875;28;46422;-66
2021/12/08 10:47:39;;;;;;;;;1.75;1.25;;;;;7.74;62.63;99209.34;4972989;28;45291;-67
2021/12/08 10:56:17;;;;;;;;;0.00;0.00;;;;;7.99;61.52;99195.31;4973810;28;45506;-66
2021/12/08 10:58:49;;;;;;;;;1.00;1.00;;;;;8.05;61.28;99194.88;4975694;28;45311;-66
2021/12/08 11:01:18;;;;;;;;;0.25;0.25;;;;;8.13;61.20;99199.66;4958313;28;45469;-68
2021/12/08 11:03:46;;;;;;;;;4.75;2.25;;;;;8.12;60.68;99193.53;4958149;28;47684;-67
2021/12/08 11:06:15;;;;;;;;;1.00;1.00;;;;;8.23;61.01;99201.59;4975851;28;45425;-66
2021/12/08 11:08:45;;;;;;;;;3.25;1.00;;;;;8.31;61.20;99201.03;4976463;28;45275;-65
2021/12/08 11:11:22;;;;;;;;;4.50;2.00;;;;;8.36;60.72;99206.06;4976688;28;45576;-68
2021/12/08 11:13:57;;;;;;;;;4.75;4.75;;;;;8.46;60.43;99207.97;4975258;28;45544;-70
2021/12/08 11:16:33;;;;;;;;;1.75;1.00;;;;;8.49;59.51;99212.22;4958021;28;45480;-69
2021/12/08 11:19:00;;;;;;;;;3.25;1.00;;;;;8.52;60.50;99212.00;4975769;28;45248;-66
2021/12/08 11:21:36;;;;;;;;;3.25;1.25;;;;;8.50;59.70;99208.59;4978658;28;45575;-68
2021/12/08 11:24:11;;;;;;;;;2.00;2.00;;;;;8.39;59.01;99195.25;4995133;28;46020;-68
2021/12/08 11:26:41;;;;;;;;;1.00;1.00;;;;;8.43;60.19;99199.38;4995148;28;45352;-69
2021/12/08 11:29:20;;;;;;;;;1.00;1.00;;;;;8.44;59.77;99198.41;4995259;28;45543;-69
2021/12/08 11:31:49;;;;;;;;;1.50;1.00;;;;;8.33;59.12;99196.47;4995202;28;45436;-68
2021/12/08 11:34:40;;;;;;;;;1.25;1.00;;;;;8.42;58.90;99195.03;4977938;28;46264;-68
2021/12/08 11:37:14;;;;;;;;;1.00;1.00;;;;;8.40;59.92;99184.56;4977143;28;45486;-67
2021/12/08 11:39:43;;;;;;;;;2.00;2.00;;;;;8.42;58.71;99181.78;4978163;28;45420;-68
2021/12/08 11:42:16;;;;;;;;;4.00;3.50;;;;;8.45;58.96;99192.16;4995107;28;45206;-70
2021/12/08 11:44:49;;;;;;;;;3.25;1.00;;;;;8.55;58.77;99209.13;4977045;28;47004;-67
2021/12/08 11:47:23;;;;;;;;;0.50;0.50;;;;;8.53;59.46;99213.69;4994570;28;45496;-66
2021/12/08 11:49:56;;;;;;;;;1.75;1.25;;;;;8.55;59.37;99202.03;4995179;28;46045;-66
2021/12/08 11:52:29;;;;;;;;;0.75;0.75;;;;;8.57;57.97;99209.88;4995001;28;45538;-67
2021/12/08 11:55:00;;;;;;;;;0.25;0.25;;;;;8.54;58.47;99199.47;4994839;28;45312;-67
2021/12/08 11:57:36;;;;;;;;;1.75;1.75;;;;;8.59;59.42;99207.94;4977242;28;45415;-66
2021/12/08 12:00:16;;;;;;;;;2.00;2.00;;;;;8.68;59.19;99201.16;4977337;28;45544;-66
2021/12/08 12:02:53;;;;;;;;;4.25;2.00;;;;;8.69;59.13;99206.34;4977667;28;45349;-65
2021/12/08 12:05:22;;;;;;;;;2.00;2.00;;;;;8.76;58.55;99210.28;4976674;28;46043;-66
2021/12/08 12:07:48;;;;;;;;;2.50;2.00;;;;;8.85;58.17;99214.06;4993992;28;45289;-67
2021/12/08 12:10:17;;;;;;;;;1.00;1.00;;;;;8.88;58.33;99219.19;4995221;28;45260;-67
2021/12/08 12:12:43;;;;;;;;;2.00;2.00;;;;;8.83;59.24;99206.22;4995242;28;45460;-67
2021/12/08 12:15:11;;;;;;;;;2.00;1.00;;;;;8.84;59.05;99228.28;4994362;28;45437;-67
2021/12/08 12:17:37;;;;;;;;;5.50;3.00;;;;;8.82;58.23;99219.59;4994469;28;45326;-68
2021/12/08 12:20:16;;;;;;;;;0.50;0.25;;;;;8.86;58.50;99221.94;4994507;28;45184;-68
2021/12/08 12:23:08;;;;;;;;;2.25;2.00;;;;;8.96;58.95;99221.25;4963830;28;45376;-68
2021/12/08 12:25:48;;;;;;;;;5.50;1.00;;;;;9.07;59.05;99224.00;4974814;28;45497;-67
2021/12/08 12:28:46;;;;;;;;;3.00;1.25;;;;;9.13;58.41;99223.59;4957268;28;46016;-67
2021/12/08 12:31:36;;;;;;;;;1.00;1.00;;;;;9.14;57.78;99234.06;4975452;28;45358;-69
2021/12/08 12:34:02;;;;;;;;;1.00;1.00;;;;;9.22;57.84;99230.84;4974880;28;45267;-68
2021/12/08 12:36:32;;;;;;;;;2.00;2.00;;;;;9.26;57.87;99234.16;4974454;28;45359;-67
2021/12/08 12:39:09;;;;;;;;;2.25;1.75;;;;;9.23;57.15;99245.81;4974851;28;45311;-65
2021/12/08 12:41:35;;;;;;;;;3.00;1.75;;;;;9.13;57.91;99240.34;4964319;28;45462;-62
2021/12/08 12:44:23;;;;;;;;;1.00;1.00;;;;;9.19;58.50;99257.59;4992827;28;45307;-62
2021/12/08 12:47:04;;;;;;;;;0.50;0.50;;;;;9.16;57.65;99260.50;4991236;28;45466;-73